sensor_id;sensor_type;location;lat;lon;timestamp;temperature;humidity
2226;DHT22;1119;48.288;8.726;2022-09-13T00:00:52;17.00;96.70
2226;DHT22;1119;48.288;8.726;2022-09-13T00:03:20;16.90;96.80
2226;DHT22;1119;48.288;8.726;2022-09-13T00:05:47;16.90;97.10
2226;DHT22;1119;48.288;8.726;2022-09-13T00:08:15;16.80;97.10
2226;DHT22;1119;48.288;8.726;2022-09-13T00:10:45;16.80;97.30
2226;DHT22;1119;48.288;8.726;2022-09-13T00:13:14;16.80;97.50
2226;DHT22;1119;48.288;8.726;2022-09-13T00:15:43;16.70;97.70
2226;DHT22;1119;48.288;8.726;2022-09-13T00:18:10;16.70;97.90
2226;DHT22;1119;48.288;8.726;2022-09-13T00:20:38;16.60;98.00
2226;DHT22;1119;48.288;8.726;2022-09-13T00:23:05;16.60;98.00
2226;DHT22;1119;48.288;8.726;2022-09-13T00:25:32;16.60;98.10
2226;DHT22;1119;48.288;8.726;2022-09-13T00:28:01;16.60;98.10
2226;DHT22;1119;48.288;8.726;2022-09-13T00:30:28;16.50;98.20
2226;DHT22;1119;48.288;8.726;2022-09-13T00:32:55;16.80;98.30
2226;DHT22;1119;48.288;8.726;2022-09-13T00:35:22;16.60;98.30
2226;DHT22;1119;48.288;8.726;2022-09-13T00:37:49;16.70;98.30
2226;DHT22;1119;48.288;8.726;2022-09-13T00:40:17;16.60;98.50
2226;DHT22;1119;48.288;8.726;2022-09-13T00:42:44;16.60;98.20
2226;DHT22;1119;48.288;8.726;2022-09-13T00:45:16;16.60;98.30
2226;DHT22;1119;48.288;8.726;2022-09-13T00:47:47;16.60;98.60
2226;DHT22;1119;48.288;8.726;2022-09-13T00:50:19;16.50;98.70
2226;DHT22;1119;48.288;8.726;2022-09-13T00:52:51;16.50;98.90
2226;DHT22;1119;48.288;8.726;2022-09-13T00:55:24;16.40;99.20
2226;DHT22;1119;48.288;8.726;2022-09-13T00:57:56;16.40;99.50
2226;DHT22;1119;48.288;8.726;2022-09-13T01:00:26;16.30;99.60
2226;DHT22;1119;48.288;8.726;2022-09-13T01:02:56;16.20;99.90
2226;DHT22;1119;48.288;8.726;2022-09-13T01:05:28;16.20;99.90
2226;DHT22;1119;48.288;8.726;2022-09-13T01:07:59;16.20;99.90
2226;DHT22;1119;48.288;8.726;2022-09-13T01:10:27;16.20;99.90
2226;DHT22;1119;48.288;8.726;2022-09-13T01:13:00;16.20;99.90
2226;DHT22;1119;48.288;8.726;2022-09-13T01:15:37;16.20;99.90
2226;DHT22;1119;48.288;8.726;2022-09-13T01:18:05;16.20;99.90
2226;DHT22;1119;48.288;8.726;2022-09-13T01:20:47;16.20;99.90
2226;DHT22;1119;48.288;8.726;2022-09-13T01:27:00;16.20;99.90
2226;DHT22;1119;48.288;8.726;2022-09-13T01:30:04;16.20;99.90
2226;DHT22;1119;48.288;8.726;2022-09-13T01:32:56;16.10;99.90
2226;DHT22;1119;48.288;8.726;2022-09-13T01:35:38;16.10;99.90
2226;DHT22;1119;48.288;8.726;2022-09-13T01:38:22;16.00;99.90
2226;DHT22;1119;48.288;8.726;2022-09-13T01:41:03;16.00;99.90
2226;DHT22;1119;48.288;8.726;2022-09-13T01:43:41;15.90;99.90
2226;DHT22;1119;48.288;8.726;2022-09-13T01:46:17;15.90;99.90
2226;DHT22;1119;48.288;8.726;2022-09-13T01:48:53;15.80;99.90
2226;DHT22;1119;48.288;8.726;2022-09-13T01:54:15;15.80;99.90
2226;DHT22;1119;48.288;8.726;2022-09-13T01:56:50;15.80;99.90
2226;DHT22;1119;48.288;8.726;2022-09-13T01:59:23;15.70;99.90
2226;DHT22;1119;48.288;8.726;2022-09-13T02:01:58;15.80;99.90
2226;DHT22;1119;48.288;8.726;2022-09-13T02:04:29;15.80;99.90
2226;DHT22;1119;48.288;8.726;2022-09-13T02:07:04;15.90;99.90
2226;DHT22;1119;48.288;8.726;2022-09-13T02:09:36;15.80;99.90
2226;DHT22;1119;48.288;8.726;2022-09-13T02:12:09;15.80;99.90
2226;DHT22;1119;48.288;8.726;2022-09-13T02:14:43;15.70;99.90
2226;DHT22;1119;48.288;8.726;2022-09-13T02:17:18;15.70;99.90
2226;DHT22;1119;48.288;8.726;2022-09-13T02:19:51;15.70;99.90
2226;DHT22;1119;48.288;8.726;2022-09-13T02:22:24;15.70;99.90
2226;DHT22;1119;48.288;8.726;2022-09-13T02:24:56;15.70;99.90
2226;DHT22;1119;48.288;8.726;2022-09-13T02:27:28;15.70;99.90
2226;DHT22;1119;48.288;8.726;2022-09-13T02:30:02;15.70;99.90
2226;DHT22;1119;48.288;8.726;2022-09-13T02:32:36;15.70;99.90
2226;DHT22;1119;48.288;8.726;2022-09-13T02:35:09;15.70;99.90
2226;DHT22;1119;48.288;8.726;2022-09-13T02:37:39;15.80;99.90
2226;DHT22;1119;48.288;8.726;2022-09-13T02:40:11;15.80;99.90
2226;DHT22;1119;48.288;8.726;2022-09-13T02:42:43;15.80;99.90
2226;DHT22;1119;48.288;8.726;2022-09-13T02:45:13;15.90;99.90
2226;DHT22;1119;48.288;8.726;2022-09-13T02:47:46;15.80;99.90
2226;DHT22;1119;48.288;8.726;2022-09-13T02:50:30;15.90;99.90
2226;DHT22;1119;48.288;8.726;2022-09-13T02:53:04;15.80;99.90
2226;DHT22;1119;48.288;8.726;2022-09-13T02:55:43;15.70;99.90
2226;DHT22;1119;48.288;8.726;2022-09-13T02:58:20;15.70;99.90
2226;DHT22;1119;48.288;8.726;2022-09-13T03:00:51;15.60;99.90
2226;DHT22;1119;48.288;8.726;2022-09-13T03:03:20;15.60;99.90
2226;DHT22;1119;48.288;8.726;2022-09-13T03:05:47;15.60;99.90
2226;DHT22;1119;48.288;8.726;2022-09-13T03:08:16;15.60;99.90
2226;DHT22;1119;48.288;8.726;2022-09-13T03:10:50;15.80;99.90
2226;DHT22;1119;48.288;8.726;2022-09-13T03:13:44;15.50;99.90
2226;DHT22;1119;48.288;8.726;2022-09-13T03:16:32;15.70;99.90
2226;DHT22;1119;48.288;8.726;2022-09-13T03:19:18;15.70;99.90
2226;DHT22;1119;48.288;8.726;2022-09-13T03:22:15;15.60;99.90
2226;DHT22;1119;48.288;8.726;2022-09-13T03:24:59;15.60;99.90
2226;DHT22;1119;48.288;8.726;2022-09-13T03:27:36;15.60;99.90
2226;DHT22;1119;48.288;8.726;2022-09-13T03:30:07;15.60;99.90
2226;DHT22;1119;48.288;8.726;2022-09-13T03:32:41;15.60;99.90
2226;DHT22;1119;48.288;8.726;2022-09-13T03:35:20;15.60;99.90
2226;DHT22;1119;48.288;8.726;2022-09-13T03:37:56;15.60;99.90
2226;DHT22;1119;48.288;8.726;2022-09-13T03:40:34;15.60;99.90
2226;DHT22;1119;48.288;8.726;2022-09-13T03:43:10;15.90;99.90
2226;DHT22;1119;48.288;8.726;2022-09-13T03:45:42;15.60;99.90
2226;DHT22;1119;48.288;8.726;2022-09-13T03:48:12;15.60;99.90
2226;DHT22;1119;48.288;8.726;2022-09-13T03:50:42;15.50;99.90
2226;DHT22;1119;48.288;8.726;2022-09-13T03:53:14;15.60;99.90
2226;DHT22;1119;48.288;8.726;2022-09-13T03:55:44;15.60;99.90
2226;DHT22;1119;48.288;8.726;2022-09-13T03:58:13;15.60;99.90
2226;DHT22;1119;48.288;8.726;2022-09-13T04:00:41;15.60;99.90
2226;DHT22;1119;48.288;8.726;2022-09-13T04:03:09;15.60;99.90
2226;DHT22;1119;48.288;8.726;2022-09-13T04:05:37;15.60;99.90
2226;DHT22;1119;48.288;8.726;2022-09-13T04:08:06;15.60;99.90
2226;DHT22;1119;48.288;8.726;2022-09-13T04:10:37;15.60;99.90
2226;DHT22;1119;48.288;8.726;2022-09-13T04:13:06;15.70;99.90
2226;DHT22;1119;48.288;8.726;2022-09-13T04:15:39;15.60;99.90
2226;DHT22;1119;48.288;8.726;2022-09-13T04:18:07;15.60;99.90
2226;DHT22;1119;48.288;8.726;2022-09-13T04:20:36;15.60;99.90
2226;DHT22;1119;48.288;8.726;2022-09-13T04:23:08;15.60;99.90
2226;DHT22;1119;48.288;8.726;2022-09-13T04:25:37;15.60;99.90
2226;DHT22;1119;48.288;8.726;2022-09-13T04:28:06;15.60;99.90
2226;DHT22;1119;48.288;8.726;2022-09-13T04:30:34;15.70;99.90
2226;DHT22;1119;48.288;8.726;2022-09-13T04:33:05;15.60;99.90
2226;DHT22;1119;48.288;8.726;2022-09-13T04:35:44;15.60;99.90
2226;DHT22;1119;48.288;8.726;2022-09-13T04:38:16;15.60;99.90
2226;DHT22;1119;48.288;8.726;2022-09-13T04:40:51;15.70;99.90
2226;DHT22;1119;48.288;8.726;2022-09-13T04:43:19;15.80;99.90
2226;DHT22;1119;48.288;8.726;2022-09-13T04:45:50;15.80;99.90
2226;DHT22;1119;48.288;8.726;2022-09-13T04:48:17;15.70;99.90
2226;DHT22;1119;48.288;8.726;2022-09-13T04:50:44;15.80;99.90
2226;DHT22;1119;48.288;8.726;2022-09-13T04:53:12;15.80;99.90
2226;DHT22;1119;48.288;8.726;2022-09-13T04:55:40;15.70;99.90
2226;DHT22;1119;48.288;8.726;2022-09-13T04:58:07;15.60;99.90
2226;DHT22;1119;48.288;8.726;2022-09-13T05:00:34;15.60;99.90
2226;DHT22;1119;48.288;8.726;2022-09-13T05:03:02;15.60;99.90
2226;DHT22;1119;48.288;8.726;2022-09-13T05:05:29;15.60;99.90
2226;DHT22;1119;48.288;8.726;2022-09-13T05:07:57;15.60;99.90
2226;DHT22;1119;48.288;8.726;2022-09-13T05:10:24;15.90;99.90
2226;DHT22;1119;48.288;8.726;2022-09-13T05:12:55;15.80;99.90
2226;DHT22;1119;48.288;8.726;2022-09-13T05:15:22;15.70;99.90
2226;DHT22;1119;48.288;8.726;2022-09-13T05:17:49;15.80;99.90
2226;DHT22;1119;48.288;8.726;2022-09-13T05:20:16;16.00;99.90
2226;DHT22;1119;48.288;8.726;2022-09-13T05:22:43;15.80;99.90
2226;DHT22;1119;48.288;8.726;2022-09-13T05:25:10;16.30;99.90
2226;DHT22;1119;48.288;8.726;2022-09-13T05:27:38;15.90;99.90
2226;DHT22;1119;48.288;8.726;2022-09-13T05:30:07;16.00;99.90
2226;DHT22;1119;48.288;8.726;2022-09-13T05:32:35;16.00;99.90
2226;DHT22;1119;48.288;8.726;2022-09-13T05:35:02;16.10;99.90
2226;DHT22;1119;48.288;8.726;2022-09-13T05:37:30;16.20;99.90
2226;DHT22;1119;48.288;8.726;2022-09-13T05:39:57;16.30;99.90
2226;DHT22;1119;48.288;8.726;2022-09-13T05:42:24;16.30;99.90
2226;DHT22;1119;48.288;8.726;2022-09-13T05:44:53;16.30;99.90
2226;DHT22;1119;48.288;8.726;2022-09-13T05:47:23;16.70;99.90
2226;DHT22;1119;48.288;8.726;2022-09-13T05:49:50;16.30;99.90
2226;DHT22;1119;48.288;8.726;2022-09-13T05:52:17;16.80;99.90
2226;DHT22;1119;48.288;8.726;2022-09-13T05:54:44;17.80;99.90
2226;DHT22;1119;48.288;8.726;2022-09-13T05:57:11;18.90;98.60
2226;DHT22;1119;48.288;8.726;2022-09-13T05:59:38;19.70;96.40
2226;DHT22;1119;48.288;8.726;2022-09-13T06:02:08;20.40;94.30
2226;DHT22;1119;48.288;8.726;2022-09-13T06:04:36;21.10;92.70
2226;DHT22;1119;48.288;8.726;2022-09-13T06:07:04;20.80;91.70
2226;DHT22;1119;48.288;8.726;2022-09-13T06:09:31;20.10;92.30
2226;DHT22;1119;48.288;8.726;2022-09-13T06:11:58;19.60;93.20
2226;DHT22;1119;48.288;8.726;2022-09-13T06:14:25;19.80;93.50
2226;DHT22;1119;48.288;8.726;2022-09-13T06:16:52;20.90;92.30
2226;DHT22;1119;48.288;8.726;2022-09-13T06:19:19;22.20;90.10
2226;DHT22;1119;48.288;8.726;2022-09-13T06:21:48;23.70;83.70
2226;DHT22;1119;48.288;8.726;2022-09-13T06:24:15;25.00;77.10
2226;DHT22;1119;48.288;8.726;2022-09-13T06:26:42;26.00;70.90
2226;DHT22;1119;48.288;8.726;2022-09-13T06:29:10;27.20;67.40
2226;DHT22;1119;48.288;8.726;2022-09-13T06:31:37;28.10;61.40
2226;DHT22;1119;48.288;8.726;2022-09-13T06:34:10;28.40;58.50
2226;DHT22;1119;48.288;8.726;2022-09-13T06:36:38;28.30;56.80
2226;DHT22;1119;48.288;8.726;2022-09-13T06:39:07;28.50;56.10
2226;DHT22;1119;48.288;8.726;2022-09-13T06:41:35;28.90;54.60
2226;DHT22;1119;48.288;8.726;2022-09-13T06:44:03;29.60;53.60
2226;DHT22;1119;48.288;8.726;2022-09-13T06:46:32;30.80;51.70
2226;DHT22;1119;48.288;8.726;2022-09-13T06:49:02;31.90;49.50
2226;DHT22;1119;48.288;8.726;2022-09-13T06:51:31;32.90;46.90
2226;DHT22;1119;48.288;8.726;2022-09-13T06:54:01;33.90;44.30
2226;DHT22;1119;48.288;8.726;2022-09-13T06:56:32;34.40;42.10
2226;DHT22;1119;48.288;8.726;2022-09-13T06:59:03;34.40;41.10
2226;DHT22;1119;48.288;8.726;2022-09-13T07:01:33;33.90;41.30
2226;DHT22;1119;48.288;8.726;2022-09-13T07:04:03;33.60;41.90
2226;DHT22;1119;48.288;8.726;2022-09-13T07:06:34;33.40;42.20
2226;DHT22;1119;48.288;8.726;2022-09-13T07:09:03;33.50;42.60
2226;DHT22;1119;48.288;8.726;2022-09-13T07:11:34;33.40;42.50
2226;DHT22;1119;48.288;8.726;2022-09-13T07:14:03;33.70;42.30
2226;DHT22;1119;48.288;8.726;2022-09-13T07:16:34;34.10;42.10
2226;DHT22;1119;48.288;8.726;2022-09-13T07:19:04;34.40;40.90
2226;DHT22;1119;48.288;8.726;2022-09-13T07:21:33;34.50;40.60
2226;DHT22;1119;48.288;8.726;2022-09-13T07:24:01;34.80;40.50
2226;DHT22;1119;48.288;8.726;2022-09-13T07:26:29;35.30;40.10
2226;DHT22;1119;48.288;8.726;2022-09-13T07:29:00;35.60;39.30
2226;DHT22;1119;48.288;8.726;2022-09-13T07:31:35;36.10;38.70
2226;DHT22;1119;48.288;8.726;2022-09-13T07:34:05;36.00;38.20
2226;DHT22;1119;48.288;8.726;2022-09-13T07:36:34;36.00;38.20
2226;DHT22;1119;48.288;8.726;2022-09-13T07:39:03;36.00;38.40
2226;DHT22;1119;48.288;8.726;2022-09-13T07:41:32;36.00;38.40
2226;DHT22;1119;48.288;8.726;2022-09-13T07:44:02;36.10;39.00
2226;DHT22;1119;48.288;8.726;2022-09-13T07:46:31;36.10;38.20
2226;DHT22;1119;48.288;8.726;2022-09-13T07:49:01;35.90;37.80
2226;DHT22;1119;48.288;8.726;2022-09-13T07:51:30;35.60;37.80
2226;DHT22;1119;48.288;8.726;2022-09-13T07:53:59;35.40;37.90
2226;DHT22;1119;48.288;8.726;2022-09-13T07:56:29;35.00;38.70
2226;DHT22;1119;48.288;8.726;2022-09-13T07:58:59;34.80;38.70
2226;DHT22;1119;48.288;8.726;2022-09-13T08:01:32;34.70;38.90
2226;DHT22;1119;48.288;8.726;2022-09-13T08:04:02;34.20;39.30
2226;DHT22;1119;48.288;8.726;2022-09-13T08:06:32;33.80;39.50
2226;DHT22;1119;48.288;8.726;2022-09-13T08:09:00;33.10;40.50
2226;DHT22;1119;48.288;8.726;2022-09-13T08:11:30;32.30;42.60
2226;DHT22;1119;48.288;8.726;2022-09-13T08:13:58;32.10;42.80
2226;DHT22;1119;48.288;8.726;2022-09-13T08:16:28;32.00;43.00
2226;DHT22;1119;48.288;8.726;2022-09-13T08:18:57;31.80;43.50
2226;DHT22;1119;48.288;8.726;2022-09-13T08:21:27;31.70;44.30
2226;DHT22;1119;48.288;8.726;2022-09-13T08:23:58;31.70;44.00
2226;DHT22;1119;48.288;8.726;2022-09-13T08:26:25;31.60;43.30
2226;DHT22;1119;48.288;8.726;2022-09-13T08:28:55;31.60;44.20
2226;DHT22;1119;48.288;8.726;2022-09-13T08:31:26;31.50;43.60
2226;DHT22;1119;48.288;8.726;2022-09-13T08:33:55;31.10;44.60
2226;DHT22;1119;48.288;8.726;2022-09-13T08:36:23;30.20;46.70
2226;DHT22;1119;48.288;8.726;2022-09-13T08:38:52;29.10;48.40
2226;DHT22;1119;48.288;8.726;2022-09-13T08:44:33;27.70;51.70
2226;DHT22;1119;48.288;8.726;2022-09-13T08:47:20;27.10;52.60
2226;DHT22;1119;48.288;8.726;2022-09-13T08:50:03;26.50;53.20
2226;DHT22;1119;48.288;8.726;2022-09-13T08:52:44;26.20;53.30
2226;DHT22;1119;48.288;8.726;2022-09-13T08:55:22;26.20;54.50
2226;DHT22;1119;48.288;8.726;2022-09-13T08:57:57;26.20;53.60
2226;DHT22;1119;48.288;8.726;2022-09-13T09:00:33;26.40;53.10
2226;DHT22;1119;48.288;8.726;2022-09-13T09:03:16;26.70;51.80
2226;DHT22;1119;48.288;8.726;2022-09-13T09:05:49;27.00;50.70
2226;DHT22;1119;48.288;8.726;2022-09-13T09:08:31;27.10;49.80
2226;DHT22;1119;48.288;8.726;2022-09-13T09:11:06;27.30;49.60
2226;DHT22;1119;48.288;8.726;2022-09-13T09:13:39;27.50;49.50
2226;DHT22;1119;48.288;8.726;2022-09-13T09:16:19;27.60;48.70
2226;DHT22;1119;48.288;8.726;2022-09-13T09:18:57;27.60;48.80
2226;DHT22;1119;48.288;8.726;2022-09-13T09:21:26;27.60;48.80
2226;DHT22;1119;48.288;8.726;2022-09-13T09:23:54;27.70;48.40
2226;DHT22;1119;48.288;8.726;2022-09-13T09:26:22;27.90;48.30
2226;DHT22;1119;48.288;8.726;2022-09-13T09:28:54;28.00;47.80
2226;DHT22;1119;48.288;8.726;2022-09-13T09:31:28;27.70;45.70
2226;DHT22;1119;48.288;8.726;2022-09-13T09:34:12;27.60;47.30
2226;DHT22;1119;48.288;8.726;2022-09-13T09:36:53;27.30;44.90
2226;DHT22;1119;48.288;8.726;2022-09-13T09:39:28;26.90;46.20
2226;DHT22;1119;48.288;8.726;2022-09-13T09:41:58;27.00;47.10
2226;DHT22;1119;48.288;8.726;2022-09-13T09:44:30;27.40;44.30
2226;DHT22;1119;48.288;8.726;2022-09-13T09:47:02;27.60;44.70
2226;DHT22;1119;48.288;8.726;2022-09-13T09:49:36;27.80;44.10
2226;DHT22;1119;48.288;8.726;2022-09-13T09:52:28;27.90;45.20
2226;DHT22;1119;48.288;8.726;2022-09-13T09:55:06;28.10;44.60
2226;DHT22;1119;48.288;8.726;2022-09-13T09:57:54;28.10;44.40
2226;DHT22;1119;48.288;8.726;2022-09-13T10:00:24;28.10;45.30
2226;DHT22;1119;48.288;8.726;2022-09-13T10:02:56;28.00;45.50
2226;DHT22;1119;48.288;8.726;2022-09-13T10:05:27;27.90;46.10
2226;DHT22;1119;48.288;8.726;2022-09-13T10:07:59;28.00;44.20
2226;DHT22;1119;48.288;8.726;2022-09-13T10:10:34;28.10;43.20
2226;DHT22;1119;48.288;8.726;2022-09-13T10:13:06;28.10;44.40
2226;DHT22;1119;48.288;8.726;2022-09-13T10:15:34;28.20;44.50
2226;DHT22;1119;48.288;8.726;2022-09-13T10:18:13;28.30;41.20
2226;DHT22;1119;48.288;8.726;2022-09-13T10:20:59;28.50;44.70
2226;DHT22;1119;48.288;8.726;2022-09-13T10:23:28;28.60;45.80
2226;DHT22;1119;48.288;8.726;2022-09-13T10:26:09;28.70;46.60
2226;DHT22;1119;48.288;8.726;2022-09-13T10:28:43;28.90;45.40
2226;DHT22;1119;48.288;8.726;2022-09-13T10:31:14;28.90;45.80
2226;DHT22;1119;48.288;8.726;2022-09-13T10:33:55;29.00;45.90
2226;DHT22;1119;48.288;8.726;2022-09-13T10:36:28;29.10;45.60
2226;DHT22;1119;48.288;8.726;2022-09-13T10:39:00;29.20;44.50
2226;DHT22;1119;48.288;8.726;2022-09-13T10:41:30;29.30;43.50
2226;DHT22;1119;48.288;8.726;2022-09-13T10:44:00;29.20;43.20
2226;DHT22;1119;48.288;8.726;2022-09-13T10:46:30;29.10;42.50
2226;DHT22;1119;48.288;8.726;2022-09-13T10:48:58;29.10;41.70
2226;DHT22;1119;48.288;8.726;2022-09-13T10:51:34;28.90;42.70
2226;DHT22;1119;48.288;8.726;2022-09-13T10:54:17;28.90;42.50
2226;DHT22;1119;48.288;8.726;2022-09-13T10:56:46;28.90;42.30
2226;DHT22;1119;48.288;8.726;2022-09-13T10:59:22;29.00;43.10
2226;DHT22;1119;48.288;8.726;2022-09-13T11:02:21;29.00;43.40
2226;DHT22;1119;48.288;8.726;2022-09-13T11:05:12;29.10;43.70
2226;DHT22;1119;48.288;8.726;2022-09-13T11:08:02;29.20;40.20
2226;DHT22;1119;48.288;8.726;2022-09-13T11:10:44;29.10;38.30
2226;DHT22;1119;48.288;8.726;2022-09-13T11:13:23;28.90;37.40
2226;DHT22;1119;48.288;8.726;2022-09-13T11:16:05;28.80;40.90
2226;DHT22;1119;48.288;8.726;2022-09-13T11:19:21;28.70;42.60
2226;DHT22;1119;48.288;8.726;2022-09-13T11:22:08;28.60;41.70
2226;DHT22;1119;48.288;8.726;2022-09-13T11:24:54;28.50;42.60
2226;DHT22;1119;48.288;8.726;2022-09-13T11:27:43;28.60;44.40
2226;DHT22;1119;48.288;8.726;2022-09-13T11:30:18;28.60;44.00
2226;DHT22;1119;48.288;8.726;2022-09-13T11:33:03;28.90;43.30
2226;DHT22;1119;48.288;8.726;2022-09-13T11:35:45;28.90;42.00
2226;DHT22;1119;48.288;8.726;2022-09-13T11:38:27;28.70;41.30
2226;DHT22;1119;48.288;8.726;2022-09-13T11:41:12;28.90;42.20
2226;DHT22;1119;48.288;8.726;2022-09-13T11:43:54;29.10;42.60
2226;DHT22;1119;48.288;8.726;2022-09-13T11:46:36;29.20;42.30
2226;DHT22;1119;48.288;8.726;2022-09-13T11:49:26;29.30;41.90
2226;DHT22;1119;48.288;8.726;2022-09-13T11:52:08;29.40;42.30
2226;DHT22;1119;48.288;8.726;2022-09-13T11:54:49;29.40;41.70
2226;DHT22;1119;48.288;8.726;2022-09-13T11:57:25;29.30;40.90
2226;DHT22;1119;48.288;8.726;2022-09-13T11:59:57;29.30;41.80
2226;DHT22;1119;48.288;8.726;2022-09-13T12:02:31;29.00;41.40
2226;DHT22;1119;48.288;8.726;2022-09-13T12:05:06;28.90;41.90
2226;DHT22;1119;48.288;8.726;2022-09-13T12:07:39;28.90;43.90
2226;DHT22;1119;48.288;8.726;2022-09-13T12:10:15;28.90;43.90
2226;DHT22;1119;48.288;8.726;2022-09-13T12:12:47;28.90;42.30
2226;DHT22;1119;48.288;8.726;2022-09-13T12:15:20;29.20;41.80
2226;DHT22;1119;48.288;8.726;2022-09-13T12:17:51;29.40;41.50
2226;DHT22;1119;48.288;8.726;2022-09-13T12:20:31;29.70;42.10
2226;DHT22;1119;48.288;8.726;2022-09-13T12:23:02;29.60;42.00
2226;DHT22;1119;48.288;8.726;2022-09-13T12:25:36;29.40;43.20
2226;DHT22;1119;48.288;8.726;2022-09-13T12:28:12;29.30;42.70
2226;DHT22;1119;48.288;8.726;2022-09-13T12:30:47;29.30;42.00
2226;DHT22;1119;48.288;8.726;2022-09-13T12:33:18;29.10;42.30
2226;DHT22;1119;48.288;8.726;2022-09-13T12:36:12;29.00;42.80
2226;DHT22;1119;48.288;8.726;2022-09-13T12:39:11;29.00;43.30
2226;DHT22;1119;48.288;8.726;2022-09-13T12:42:20;29.00;43.00
2226;DHT22;1119;48.288;8.726;2022-09-13T12:45:38;29.20;43.20
2226;DHT22;1119;48.288;8.726;2022-09-13T12:51:37;28.90;42.20
2226;DHT22;1119;48.288;8.726;2022-09-13T12:57:55;28.70;42.10
2226;DHT22;1119;48.288;8.726;2022-09-13T13:00:29;28.70;42.50
2226;DHT22;1119;48.288;8.726;2022-09-13T13:03:03;28.70;43.10
2226;DHT22;1119;48.288;8.726;2022-09-13T13:05:40;28.50;43.60
2226;DHT22;1119;48.288;8.726;2022-09-13T13:08:24;28.40;43.50
2226;DHT22;1119;48.288;8.726;2022-09-13T13:11:01;28.30;43.60
2226;DHT22;1119;48.288;8.726;2022-09-13T13:13:36;28.20;43.80
2226;DHT22;1119;48.288;8.726;2022-09-13T13:16:30;28.10;44.00
2226;DHT22;1119;48.288;8.726;2022-09-13T13:18:59;28.10;44.10
2226;DHT22;1119;48.288;8.726;2022-09-13T13:21:33;28.00;45.00
2226;DHT22;1119;48.288;8.726;2022-09-13T13:24:44;28.00;44.90
2226;DHT22;1119;48.288;8.726;2022-09-13T13:27:36;28.20;45.00
2226;DHT22;1119;48.288;8.726;2022-09-13T13:30:41;28.30;45.10
2226;DHT22;1119;48.288;8.726;2022-09-13T13:33:20;28.30;45.00
2226;DHT22;1119;48.288;8.726;2022-09-13T13:35:50;28.20;44.60
2226;DHT22;1119;48.288;8.726;2022-09-13T13:38:38;28.10;44.10
2226;DHT22;1119;48.288;8.726;2022-09-13T13:41:37;28.00;44.80
2226;DHT22;1119;48.288;8.726;2022-09-13T13:51:13;27.80;45.70
2226;DHT22;1119;48.288;8.726;2022-09-13T13:53:54;27.80;46.40
2226;DHT22;1119;48.288;8.726;2022-09-13T13:56:34;27.70;45.60
2226;DHT22;1119;48.288;8.726;2022-09-13T13:59:23;27.70;46.80
2226;DHT22;1119;48.288;8.726;2022-09-13T14:01:55;27.50;47.00
2226;DHT22;1119;48.288;8.726;2022-09-13T14:08:06;27.20;46.00
2226;DHT22;1119;48.288;8.726;2022-09-13T14:10:58;27.10;46.20
2226;DHT22;1119;48.288;8.726;2022-09-13T14:13:43;27.10;46.30
2226;DHT22;1119;48.288;8.726;2022-09-13T14:16:26;27.10;46.00
2226;DHT22;1119;48.288;8.726;2022-09-13T14:19:19;27.20;45.10
2226;DHT22;1119;48.288;8.726;2022-09-13T14:22:11;27.40;46.30
2226;DHT22;1119;48.288;8.726;2022-09-13T14:24:42;27.50;46.00
2226;DHT22;1119;48.288;8.726;2022-09-13T14:27:15;27.60;45.30
2226;DHT22;1119;48.288;8.726;2022-09-13T14:29:46;27.70;45.80
2226;DHT22;1119;48.288;8.726;2022-09-13T14:32:17;27.60;44.50
2226;DHT22;1119;48.288;8.726;2022-09-13T14:34:52;27.70;44.70
2226;DHT22;1119;48.288;8.726;2022-09-13T14:37:27;27.80;45.80
2226;DHT22;1119;48.288;8.726;2022-09-13T14:39:59;27.90;45.50
2226;DHT22;1119;48.288;8.726;2022-09-13T14:42:37;27.90;46.10
2226;DHT22;1119;48.288;8.726;2022-09-13T14:45:10;27.90;46.10
2226;DHT22;1119;48.288;8.726;2022-09-13T14:47:45;28.00;46.30
2226;DHT22;1119;48.288;8.726;2022-09-13T14:50:19;28.10;46.20
2226;DHT22;1119;48.288;8.726;2022-09-13T14:52:52;28.20;46.10
2226;DHT22;1119;48.288;8.726;2022-09-13T14:55:25;28.30;46.20
2226;DHT22;1119;48.288;8.726;2022-09-13T14:57:57;28.40;45.40
2226;DHT22;1119;48.288;8.726;2022-09-13T15:00:31;28.40;45.30
2226;DHT22;1119;48.288;8.726;2022-09-13T15:03:02;28.40;45.60
2226;DHT22;1119;48.288;8.726;2022-09-13T15:05:32;28.30;44.90
2226;DHT22;1119;48.288;8.726;2022-09-13T15:07:59;28.30;45.10
2226;DHT22;1119;48.288;8.726;2022-09-13T15:11:13;28.30;45.10
2226;DHT22;1119;48.288;8.726;2022-09-13T15:13:42;28.30;45.30
2226;DHT22;1119;48.288;8.726;2022-09-13T15:16:27;28.30;45.40
2226;DHT22;1119;48.288;8.726;2022-09-13T15:19:15;28.30;45.40
2226;DHT22;1119;48.288;8.726;2022-09-13T15:22:03;28.30;46.10
2226;DHT22;1119;48.288;8.726;2022-09-13T15:24:33;28.30;46.00
2226;DHT22;1119;48.288;8.726;2022-09-13T15:27:03;28.20;45.30
2226;DHT22;1119;48.288;8.726;2022-09-13T15:29:32;28.10;45.40
2226;DHT22;1119;48.288;8.726;2022-09-13T15:32:02;27.90;45.60
2226;DHT22;1119;48.288;8.726;2022-09-13T15:34:30;27.90;46.30
2226;DHT22;1119;48.288;8.726;2022-09-13T15:37:11;27.80;47.10
2226;DHT22;1119;48.288;8.726;2022-09-13T15:39:45;27.80;47.40
2226;DHT22;1119;48.288;8.726;2022-09-13T15:42:14;27.70;47.20
2226;DHT22;1119;48.288;8.726;2022-09-13T15:44:42;27.60;47.00
2226;DHT22;1119;48.288;8.726;2022-09-13T15:47:10;27.50;47.30
2226;DHT22;1119;48.288;8.726;2022-09-13T15:49:48;27.30;47.40
2226;DHT22;1119;48.288;8.726;2022-09-13T15:52:16;27.30;47.70
2226;DHT22;1119;48.288;8.726;2022-09-13T15:54:53;27.30;47.60
2226;DHT22;1119;48.288;8.726;2022-09-13T15:57:24;27.20;47.90
2226;DHT22;1119;48.288;8.726;2022-09-13T15:59:53;27.10;48.00
2226;DHT22;1119;48.288;8.726;2022-09-13T16:02:24;27.10;48.20
2226;DHT22;1119;48.288;8.726;2022-09-13T16:04:52;27.10;48.50
2226;DHT22;1119;48.288;8.726;2022-09-13T16:07:20;27.10;48.80
2226;DHT22;1119;48.288;8.726;2022-09-13T16:09:48;27.10;49.20
2226;DHT22;1119;48.288;8.726;2022-09-13T16:12:15;27.00;48.70
2226;DHT22;1119;48.288;8.726;2022-09-13T16:14:44;27.00;48.60
2226;DHT22;1119;48.288;8.726;2022-09-13T16:17:20;26.90;48.90
2226;DHT22;1119;48.288;8.726;2022-09-13T16:19:48;26.80;49.00
2226;DHT22;1119;48.288;8.726;2022-09-13T16:22:15;26.70;49.30
2226;DHT22;1119;48.288;8.726;2022-09-13T16:24:43;26.70;49.30
2226;DHT22;1119;48.288;8.726;2022-09-13T16:27:12;26.50;49.40
2226;DHT22;1119;48.288;8.726;2022-09-13T16:29:40;26.50;49.60
2226;DHT22;1119;48.288;8.726;2022-09-13T16:32:08;26.40;49.70
2226;DHT22;1119;48.288;8.726;2022-09-13T16:34:36;26.40;49.70
2226;DHT22;1119;48.288;8.726;2022-09-13T16:37:03;26.40;50.00
2226;DHT22;1119;48.288;8.726;2022-09-13T16:39:31;26.30;49.90
2226;DHT22;1119;48.288;8.726;2022-09-13T16:41:58;26.30;50.00
2226;DHT22;1119;48.288;8.726;2022-09-13T16:44:25;26.20;50.00
2226;DHT22;1119;48.288;8.726;2022-09-13T16:46:52;26.20;50.10
2226;DHT22;1119;48.288;8.726;2022-09-13T16:49:21;26.20;50.10
2226;DHT22;1119;48.288;8.726;2022-09-13T16:51:48;26.20;50.50
2226;DHT22;1119;48.288;8.726;2022-09-13T16:54:15;26.10;50.60
2226;DHT22;1119;48.288;8.726;2022-09-13T16:56:42;26.10;50.50
2226;DHT22;1119;48.288;8.726;2022-09-13T16:59:09;26.10;50.80
2226;DHT22;1119;48.288;8.726;2022-09-13T17:01:37;26.10;50.80
2226;DHT22;1119;48.288;8.726;2022-09-13T17:04:04;26.10;51.00
2226;DHT22;1119;48.288;8.726;2022-09-13T17:06:33;26.10;51.40
2226;DHT22;1119;48.288;8.726;2022-09-13T17:09:03;25.90;51.60
2226;DHT22;1119;48.288;8.726;2022-09-13T17:11:33;25.80;51.60